Tervuren markt Meer informatie Tervuren markt


Bezoek onze andere website:

Meteotemplate

Home Weather Station

Saratoga


Lokaal brand risico:
CBI


Regionaal brand risico: Meer informatie



METAR rapporten vliegvelden

   
EBBR - Brussels
Gewijzigd: Oct 24 2021 10:50 pm
Helder  
Helder  
   Wind: Zuiden 9.3 km/h
Wind: Zuiden 9.3 km/h
Temperatuur: 8°C
Voelt als: 7°C
Dauwpunt: 5°C
Vochtigheid: 82%
Barometer: 1019 mb
Zicht: meer dan 10 km
Bewolking: Helder
EBBR 242050Z 19005KT CAVOK 08/05 Q1019 NOSIG
EBAW - Antwerp
Gewijzigd: Oct 24 2021 10:50 pm
Helder  
Helder  
   Wind: Zuiden 9.3 km/h
Wind: Zuiden 9.3 km/h
Temperatuur: 9°C
Voelt als: 8°C
Dauwpunt: 5°C
Vochtigheid: 76%
Barometer: 1019 mb
Zicht: meer dan 10 km
Bewolking: Helder
EBAW 242050Z 19005KT CAVOK 09/05 Q1019 NOSIG
EHBK - Maastricht
Gewijzigd: Oct 24 2021 10:55 pm
Helder  
Helder  
   Wind: ZZW 14.8 km/h
Wind: ZZW 14.8 km/h
Temperatuur: 6°C
Voelt als: 3°C
Dauwpunt: 4°C
Vochtigheid: 87%
Barometer: 1020 mb
Bewolking: Helder
Zicht: meer dan 10 km
Bewolking: Helder
EHBK 242055Z AUTO 21008KT 9999 NCD 06/04 Q1020
EDLV - Nijmegen
Gewijzigd: Oct 24 2021 10:50 pm
Helder  
Helder  
   Wind: Zuiden 11.1 km/h
Wind: Zuiden 11.1 km/h
Temperatuur: 7°C
Voelt als: 5°C
Dauwpunt: 5°C
Vochtigheid: 87%
Barometer: 1019 mb
Zicht: meer dan 10 km
Bewolking: Helder
EDLV 242050Z 17006KT CAVOK 07/05 Q1019
EHRD - Rotterdam
Gewijzigd: Oct 24 2021 10:55 pm
Helder  
Helder  
   Wind: ZZW 14.8 km/h
Wind: ZZW 14.8 km/h
Temperatuur: 9°C
Voelt als: 7°C
Dauwpunt: 6°C
Vochtigheid: 82%
Barometer: 1018 mb
Bewolking: Helder
Zicht: meer dan 10 km
Bewolking: Helder
EHRD 242055Z AUTO 20008KT 9999 NCD 09/06 Q1018 NOSIG
 

Script ontwikkeld door  Saratoga-weather.org Aangepast voor de template door  Weerstation Leuven

U vindt ons ook hier:

Het Weer Aktueel

UK Metoffice

European Weather Network

WeatherCloud

Weather Underground

Benelux Weer Netwerk

AWEKAS

Citizen Weather Observer Program (CWOP)

HAMweather, WeatherForYou, PWS Weather

Apparatuur in gebruik:

Weerstation
Davis VP2

Weerprogramma
Meteobridge

Weercomputer
Meteobridge NANO

Davis VP2

Meteobridge

Meteobridge NANO